Latest Coastal Weather Observations for Middle Percy Island

IDQ60701

Issued at 2:52 pm EST Saturday 1 October 2016 (issued every 10 minutes, with the page automatically refreshed every 10 minutes)

About coastal observations | Map of coastal stations | Coastal observations for QLD | Marine services | Other Formats
Station Details ID: 200001 Name: MIDDLE PERCY ISLAND Lat: -21.66 Lon: 150.27 Height: 208.7 m
Data from the previous 72 hours. | See also: Recent months at Middle Percy Island
Date/Time
EST
Temp
°C
Wind Pressure Rain since
9am
mm
Weather Cloud Vis
km
Sea
Height
m
Swell
Dir  Spd
kts
Gust
kts
hPa Trend Height
m
Period
s
Dir
01/02:30pm 26.6 SSW 4 7 1013.6 - 0.0 - - - - - - -
01/02:00pm 25.3 SSE 4 8 1013.8 - 0.0 - - - - - - -
01/01:30pm 24.8 S 6 8 1014.1 - 0.0 - - - - - - -
01/01:00pm 25.0 S 7 9 1014.3 - 0.0 - - - - - - -
01/12:30pm 23.8 S 8 11 1014.7 - 0.0 - - - - - - -
01/12:00pm 24.0 S 6 9 1015.3 - 0.0 - - - - - - -
01/11:30am 23.1 S 9 13 1015.4 - 0.0 - - - - - - -
01/11:00am 22.8 SSW 8 12 1015.8 - 0.0 - - - - - - -
01/10:30am 22.6 SSW 7 9 1016.1 - 0.0 - - - - - - -
01/10:00am 22.6 S 8 10 1016.1 - 0.0 - - - - - - -
01/09:30am 22.8 SSW 9 13 1016.1 - 0.0 - - - - - - -
01/09:00am 22.4 SSW 10 13 1016.1 - 0.6 - - - - - - -
01/08:30am 21.7 SSW 10 13 1015.8 - 0.6 - - - - - - -
01/08:00am 21.4 SSW 10 14 1015.4 - 0.6 - - - - - - -
01/07:30am 20.9 SSW 10 13 1015.1 - 0.6 - - - - - - -
01/07:00am 20.7 SSW 10 13 1014.6 - 0.6 - - - - - - -
01/06:30am 20.4 SW 9 12 1014.2 - 0.4 - - - - - - -
01/06:00am 20.2 WSW 6 8 1013.6 - 0.4 - - - - - - -
01/05:30am 19.9 W 4 6 1013.0 - 0.4 - - - - - - -
01/05:00am 20.1 WNW 4 6 1012.7 - 0.4 - - - - - - -
01/04:30am 20.3 WNW 4 7 1012.3 - 0.4 - - - - - - -
01/04:00am 20.4 WNW 5 7 1011.8 - 0.4 - - - - - - -
01/03:30am 20.4 NW 6 7 1011.7 - 0.2 - - - - - - -
01/03:00am 20.2 NNW 6 7 1011.7 - 0.2 - - - - - - -
01/02:30am 20.5 NW 5 6 1011.8 - 0.2 - - - - - - -
01/02:00am 20.5 NW 6 7 1011.9 - 0.2 - - - - - - -
01/01:30am 20.9 NNW 6 7 1012.0 - 0.2 - - - - - - -
01/01:00am 20.6 NW 5 6 1012.0 - 0.2 - - - - - - -
01/12:30am 20.6 N 6 7 1012.3 - 0.2 - - - - - - -
01/12:00am 21.0 NNW 6 7 1012.4 - 0.2 - - - - - - -
 
Date/Time
EST
Temp
°C
Wind Pressure Rain since
9am
mm
Weather Cloud Vis
km
Sea
Height
m
Swell
Dir  Spd
kts
Gust
kts
hPa Trend Height
m
Period
s
Dir
30/11:30pm 20.9 N 6 7 1012.5 - 0.2 - - - - - - -
30/11:00pm 21.0 N 8 10 1012.7 - 0.2 - - - - - - -
30/10:30pm 20.6 N 7 9 1012.8 - 0.2 - - - - - - -
30/10:00pm 20.4 N 7 9 1012.8 - 0.2 - - - - - - -
30/09:30pm 20.3 N 8 10 1012.7 - 0.2 - - - - - - -
30/09:00pm 20.8 N 8 10 1012.5 - 0.2 - - - - - - -
30/08:30pm 20.8 N 8 10 1012.3 - 0.2 - - - - - - -
30/08:00pm 21.0 N 9 12 1012.0 - 0.2 - - - - - - -
30/07:30pm 21.2 N 9 11 1011.5 - 0.2 - - - - - - -
30/07:00pm 21.3 N 10 12 1011.1 - 0.2 - - - - - - -
30/06:30pm 21.0 NNE 8 9 1010.5 - 0.2 - - - - - - -
30/06:00pm 21.1 NNE 4 5 1010.4 - 0.2 - - - - - - -
30/05:30pm 22.6 N 4 5 1010.2 - 0.2 - - - - - - -
30/05:00pm 24.1 NW 4 6 1009.9 - 0.2 - - - - - - -
30/04:30pm 25.1 NNW 4 6 1009.6 - 0.2 - - - - - - -
30/04:00pm 24.8 NNW 5 9 1009.4 - 0.2 - - - - - - -
30/03:30pm 25.2 NW 3 5 1009.3 - 0.2 - - - - - - -
30/03:00pm 25.1 WNW 4 6 1009.5 - 0.2 - - - - - - -
30/02:30pm 24.7 SSW 5 7 1009.7 - 0.2 - - - - - - -
30/02:00pm 24.0 SSW 8 10 1009.7 - 0.2 - - - - - - -
30/01:30pm 23.7 SSW 10 14 1010.1 - 0.2 - - - - - - -
30/01:00pm 23.1 SSW 12 15 1010.3 - 0.2 - - - - - - -
30/12:30pm 23.9 SW 11 15 1010.9 - 0.2 - - - - - - -
30/12:00pm 23.4 SW 11 18 1011.4 - 0.2 Recent precip. - - - - - -
30/11:30am 23.1 SW 13 17 1011.4 - 0.0 - - - - - - -
30/11:00am 22.8 SW 13 17 1011.7 - 0.0 - - - - - - -
30/10:30am 21.2 SSW 10 14 1012.1 - 0.0 - - - - - - -
30/10:00am 19.6 SSW 11 15 1012.2 - 0.0 - - - - - - -
30/09:30am 22.9 NW 10 17 1011.7 - 0.0 - - - - - - -
30/09:00am 23.3 NNW 10 18 1011.1 - 1.2 - - - - - - -
30/08:30am 23.1 NNW 9 16 1011.4 - 1.2 - - - - - - -
30/08:00am 22.9 NNW 11 15 1011.0 - 1.2 - - - - - - -
30/07:30am 22.8 NNW 9 15 1010.6 - 1.2 - - - - - - -
30/07:00am 22.3 NNW 11 16 1010.1 - 1.2 - - - - - - -
30/06:30am 22.1 NNW 11 17 1009.6 - 1.2 - - - - - - -
30/06:00am 21.8 NNW 13 21 1009.1 - 1.2 - - - - - - -
30/05:30am 21.8 NNW 15 21 1008.7 - 1.2 - - - - - - -
30/05:00am 21.8 NNW 15 20 1008.4 - 1.2 - - - - - - -
30/04:30am 21.9 NNW 16 23 1008.3 - 1.2 - - - - - - -
30/04:00am 22.1 NNW 13 22 1008.0 - 1.2 - - - - - - -
30/03:35am 22.3 NNW 15 25 1008.0 - 1.2 - - - - - - -
30/03:30am 22.3 NNW 16 25 1007.8 - 1.2 - - - - - - -
30/03:00am 22.4 NNW 14 20 1008.3 - 1.2 - - - - - - -
30/02:40am 22.3 NNW 15 25 1008.3 - 1.2 - - - - - - -
30/02:30am 22.4 NNW 17 24 1008.2 - 1.2 - - - - - - -
30/02:00am 22.4 NNW 16 22 1008.6 - 1.2 - - - - - - -
30/01:30am 22.4 NNW 14 21 1009.0 - 1.2 - - - - - - -
30/01:00am 22.4 NNW 16 23 1009.1 - 1.2 - - - - - - -
30/12:30am 22.3 N 15 23 1009.3 - 1.2 - - - - - - -
30/12:04am 22.2 N 17 28 1009.0 - 1.2 - - - - - - -
30/12:00am 22.2 N 16 25 1009.1 - 1.2 - - - - - - -
 
Date/Time
EST
Temp
°C
Wind Pressure Rain since
9am
mm
Weather Cloud Vis
km
Sea
Height
m
Swell
Dir  Spd
kts
Gust
kts
hPa Trend Height
m
Period
s
Dir
29/11:30pm 22.2 N 16 24 1009.9 - 1.2 - - - - - - -
29/11:00pm 22.3 N 18 24 1009.8 - 1.2 - - - - - - -
29/10:43pm 22.5 N 20 31 1009.9 - 1.2 - - - - - - -
29/10:30pm 22.5 N 23 33 1008.2 - 1.2 - - - - - - -
29/10:27pm 22.5 N 21 33 1008.5 - 1.2 - - - - - - -
29/10:00pm 22.5 N 18 25 1009.7 - 1.2 - - - - - - -
29/09:30pm 22.4 N 16 23 1010.0 - 1.2 - - - - - - -
29/09:00pm 22.3 N 16 23 1009.5 - 1.2 - - - - - - -
29/08:30pm 22.2 N 15 22 1010.1 - 1.2 - - - - - - -
29/08:00pm 22.1 N 15 21 1009.3 - 1.2 - - - - - - -
29/07:30pm 22.0 N 16 22 1008.7 - 1.2 - - - - - - -
29/07:00pm 21.7 N 15 22 1009.0 - 1.2 - - - - - - -
29/06:30pm 22.2 N 14 24 1008.8 - 1.0 - - - - - - -
29/06:00pm 22.3 N 18 25 1008.0 - 1.0 - - - - - - -
29/05:30pm 22.2 N 17 27 1007.4 - 1.0 - - - - - - -
29/05:04pm 22.2 N 16 26 1006.9 - 1.0 - - - - - - -
29/05:00pm 22.2 N 16 25 1007.2 - 1.0 - - - - - - -
29/04:30pm 22.9 N 15 21 1007.2 - 1.0 - - - - - - -
29/04:00pm 22.3 N 14 20 1007.2 - 1.0 - - - - - - -
29/03:30pm 22.2 N 17 26 1007.0 - 1.0 - - - - - - -
29/03:00pm 21.8 N 16 23 1007.5 - 1.0 - - - - - - -
29/02:30pm 21.7 N 18 26 1007.3 - 1.0 - - - - - - -
29/02:13pm 21.8 N 16 26 1007.6 - 1.0 - - - - - - -
29/02:00pm 20.8 N 17 22 1007.7 - 1.0 - - - - - - -
29/01:51pm 20.5 N 16 22 1007.3 - 1.0 - - - - - - -
29/01:30pm 21.5 NNW 16 25 1009.3 - 0.2 - - - - - - -
29/01:00pm 21.7 NNW 14 21 1009.5 - 0.0 - - - - - - -
29/12:30pm 22.3 NNW 15 21 1009.9 - 0.0 - - - - - - -
29/12:00pm 22.3 NNW 13 20 1010.2 - 0.0 - - - - - - -
29/11:30am 22.5 N 17 24 1009.6 - 0.0 - - - - - - -
29/11:00am 22.3 N 17 23 1010.0 - 0.0 - - - - - - -
29/10:30am 22.4 N 20 27 1010.2 - 0.0 - - - - - - -
29/10:00am 22.7 N 18 23 1011.2 - 0.0 - - - - - - -
29/09:30am 23.3 N 13 19 1011.9 - 0.0 - - - - - - -
29/09:00am 23.3 N 12 18 1012.4 - 0.0 - - - - - - -
29/08:30am 23.3 N 12 18 1012.1 - 0.0 - - - - - - -
29/08:00am 22.4 N 13 18 1012.2 - 0.0 - - - - - - -
29/07:30am 22.6 N 10 16 1012.1 - 0.0 - - - - - - -
29/07:00am 22.0 N 8 13 1012.1 - 0.0 - - - - - - -
29/06:30am 21.5 N 10 15 1011.5 - 0.0 - - - - - - -
29/06:00am 21.0 N 10 14 1011.3 - 0.0 - - - - - - -
29/05:30am 21.0 N 10 15 1011.4 - 0.0 - - - - - - -
29/05:00am 21.1 N 9 13 1011.5 - 0.0 - - - - - - -
29/04:30am 20.9 N 8 12 1011.6 - 0.0 - - - - - - -
29/04:00am 20.3 N 7 10 1011.3 - 0.0 - - - - - - -
29/03:30am 20.2 N 6 9 1011.5 - 0.0 - - - - - - -
29/03:00am 20.6 N 7 10 1011.5 - 0.0 - - - - - - -
29/02:30am 20.2 N 6 10 1011.6 - 0.0 - - - - - - -
29/02:00am 20.2 NNE 6 10 1011.8 - 0.0 - - - - - - -
29/01:30am 19.9 NNE 7 9 1012.1 - 0.0 - - - - - - -
29/01:00am 20.2 NNE 7 10 1012.1 - 0.0 - - - - - - -
29/12:30am 19.9 NNE 6 9 1012.6 - 0.0 - - - - - - -
29/12:00am 20.1 NNE 7 9 1012.7 - 0.0 - - - - - - -
 
Date/Time
EST
Temp
°C
Wind Pressure Rain since
9am
mm
Weather Cloud Vis
km
Sea
Height
m
Swell
Dir  Spd
kts
Gust
kts
hPa Trend Height
m
Period
s
Dir
28/11:30pm 19.8 N 4 7 1013.3 - 0.0 - - - - - - -
28/11:00pm 20.2 NE 6 8 1012.8 - 0.0 - - - - - - -
28/10:30pm 20.3 NE 6 9 1013.4 - 0.0 - - - - - - -
28/10:00pm 20.4 NNE 7 9 1013.2 - 0.0 - - - - - - -
28/09:30pm 20.3 NNE 7 9 1013.7 - 0.0 - - - - - - -
28/09:00pm 20.3 NNE 5 7 1013.8 - 0.0 - - - - - - -
28/08:30pm 20.0 NNE 6 7 1013.7 - 0.0 - - - - - - -
28/08:00pm 20.3 NNE 5 7 1013.8 - 0.0 - - - - - - -
28/07:30pm 20.3 NNE 6 8 1013.6 - 0.0 - - - - - - -
28/07:00pm 20.1 NNE 6 7 1013.4 - 0.0 - - - - - - -
28/06:30pm 20.4 NNE 6 9 1012.9 - 0.0 - - - - - - -
28/06:00pm 20.4 NNE 6 8 1013.1 - 0.0 - - - - - - -
28/05:30pm 21.1 NNE 6 9 1012.8 - 0.0 - - - - - - -
28/05:00pm 21.9 NNE 7 10 1012.7 - 0.0 - - - - - - -
28/04:30pm 22.4 NE 7 11 1012.5 - 0.0 - - - - - - -
28/04:00pm 22.6 ENE 8 10 1012.4 - 0.0 - - - - - - -
28/03:30pm 22.9 NE 9 13 1012.4 - 0.0 - - - - - - -
28/03:00pm 23.5 E 7 12 1012.4 - 0.0 - - - - - - -

Other Formats:

Comma delimited format used in spreadsheet applications
http://www.bom.gov.au/fwo/IDQ60701/IDQ60701.94372.axf

JavaScript Object Notation format (JSON) in row-major order
http://www.bom.gov.au/fwo/IDQ60701/IDQ60701.94372.json